Mardela Springs, Maryland
Current Conditions -  °F | °C
As of 2:58 PM on Saturday 25 Oct 2014 (Local Time) from KCGE Reporting Station
Clear Clear  
Wind Chill: 72°   Ceiling: Unl
Heat Index: 72°   Visibility: 10mi
Dew Point: 43°   Wind: 7mph
Humidity: 35%   Direction: 270°W
Pressure: 29.82"   Gusts: NA
Location:  38.46°N, 75.76°W
Report Text: KCGE 251858Z AUTO 27006KT 10SM CLR 22/06 A2982 RMK AO1
Loading
Personal Weather Stations






























Interactive Weather Map
Tropical Storm Tracking
New forecast layout! Learn more

10-Day Weather Forecast

Advertisements
Track Severe Weather on mobile